Time;durP1;ratioP1;P1;durP2;ratioP2;P2;SDS_P1;SDS_P2;PMS_P1;PMS_P2;Temp;Humidity;BMP_temperature;BMP_pressure;BME280_temperature;BME280_humidity;BME280_pressure;Samples;Min_cycle;Max_cycle;Signal;HPM_P1;HPM_P2
2022/03/25 11:25:58;;;;;;;37.40;33.55;;;;;;;33.00;13.09;101390.88;5073442;28;20383;-78
2022/03/25 11:28:30;;;;;;;35.33;31.83;;;;;;;32.55;13.48;101394.41;5088736;28;20402;-78
2022/03/25 11:31:01;;;;;;;39.22;33.42;;;;;;;32.75;13.79;101384.81;5073273;28;20386;-78
2022/03/25 11:33:27;;;;;;;36.42;32.97;;;;;;;33.27;13.68;101386.94;5085339;28;20405;-78
2022/03/25 11:36:28;;;;;;;35.58;32.00;;;;;;;33.50;13.23;101382.09;5087431;28;20391;-80
2022/03/25 11:39:21;;;;;;;35.65;31.98;;;;;;;33.58;13.08;101383.03;5018327;28;20729;-79
2022/03/25 11:41:47;;;;;;;36.85;32.95;;;;;;;33.12;13.01;101379.47;5061063;28;20489;-78
2022/03/25 11:44:16;;;;;;;35.40;31.90;;;;;;;33.35;13.18;101375.47;5063305;28;20440;-78
2022/03/25 11:47:13;;;;;;;35.73;31.93;;;;;;;34.05;12.67;101365.66;5064992;28;20726;-78
2022/03/25 11:49:39;;;;;;;34.97;31.42;;;;;;;34.59;12.08;101376.34;5058961;28;20898;-77
2022/03/25 11:52:16;;;;;;;36.20;32.53;;;;;;;34.58;11.83;101372.72;5061940;28;20420;-78
2022/03/25 11:54:43;;;;;;;36.22;32.38;;;;;;;34.20;11.85;101364.66;5081700;28;20402;-76
2022/03/25 11:57:31;;;;;;;34.05;30.67;;;;;;;33.74;12.03;101362.03;5087549;28;20395;-77
2022/03/25 11:59:59;;;;;;;36.13;32.35;;;;;;;33.13;12.46;101356.63;5076455;28;20427;-76
2022/03/25 12:02:29;;;;;;;35.97;32.27;;;;;;;33.14;12.87;101365.88;5075735;28;20474;-77
2022/03/25 12:04:55;;;;;;;35.38;31.55;;;;;;;33.72;12.47;101355.16;5080153;28;20997;-77
2022/03/25 12:07:21;;;;;;;33.58;30.23;;;;;;;34.07;11.53;101347.19;5070235;28;20399;-76
2022/03/25 12:09:46;;;;;;;35.73;32.00;;;;;;;33.47;12.28;101349.13;5074417;28;20790;-77
2022/03/25 12:12:12;;;;;;;34.43;30.97;;;;;;;33.16;12.84;101355.88;5064087;28;20429;-76
2022/03/25 12:15:07;;;;;;;36.67;32.22;;;;;;;33.76;12.25;101351.19;5056922;28;20400;-77
2022/03/25 12:17:33;;;;;;;34.90;31.42;;;;;;;34.38;12.41;101351.63;5055328;28;20432;-77
2022/03/25 12:20:01;;;;;;;36.22;32.17;;;;;;;34.14;12.19;101333.25;5055846;28;20584;-79
2022/03/25 12:22:29;;;;;;;36.75;32.65;;;;;;;33.64;12.89;101336.56;5058629;28;20929;-80
2022/03/25 12:25:17;;;;;;;34.93;31.53;;;;;;;34.63;12.26;101324.56;5074397;28;20415;-79
2022/03/25 12:27:43;;;;;;;37.67;32.80;;;;;;;34.06;12.01;101327.88;5070028;28;20410;-78
2022/03/25 12:30:09;;;;;;;35.20;31.53;;;;;;;33.71;13.41;101325.41;5070816;28;20406;-78
2022/03/25 12:32:36;;;;;;;36.80;32.83;;;;;;;33.74;12.47;101325.47;5092930;28;20468;-79
2022/03/25 12:35:11;;;;;;;36.70;33.10;;;;;;;33.17;12.97;101323.78;5083010;28;20427;-79
2022/03/25 12:37:40;;;;;;;37.27;33.30;;;;;;;33.69;13.07;101322.97;5052801;28;20407;-79
2022/03/25 12:40:21;;;;;;;34.80;31.10;;;;;;;33.62;12.49;101316.47;5065618;28;20496;-78
2022/03/25 12:42:52;;;;;;;35.50;31.77;;;;;;;33.45;12.41;101314.19;5080767;28;20792;-78
2022/03/25 12:45:26;;;;;;;36.17;32.47;;;;;;;33.98;12.24;101312.13;5081707;28;20410;-80
2022/03/25 12:47:51;;;;;;;36.08;32.40;;;;;;;33.95;12.42;101312.88;5050372;28;20802;-79
2022/03/25 12:50:17;;;;;;;38.13;34.10;;;;;;;34.11;12.52;101307.84;5069381;28;20463;-80
2022/03/25 12:52:43;;;;;;;40.35;35.53;;;;;;;33.03;13.19;101308.69;5052183;28;20400;-80
2022/03/25 12:55:16;;;;;;;35.10;31.60;;;;;;;33.15;12.78;101303.72;5068502;28;20417;-80
2022/03/25 12:57:43;;;;;;;35.08;31.65;;;;;;;33.08;12.35;101302.75;5045844;28;20408;-80
2022/03/25 13:00:11;;;;;;;34.42;31.08;;;;;;;33.49;12.05;101299.00;5067661;28;20893;-79
2022/03/25 13:02:42;;;;;;;34.45;30.85;;;;;;;33.63;11.91;101290.78;5083100;28;20409;-79
2022/03/25 13:05:13;;;;;;;33.22;30.02;;;;;;;33.45;12.30;101291.69;5087279;28;20446;-80
2022/03/25 13:07:52;;;;;;;35.42;32.03;;;;;;;32.96;12.49;101291.72;5065138;28;20792;-81
2022/03/25 13:10:18;;;;;;;36.13;32.30;;;;;;;33.16;12.15;101291.25;5074848;28;20394;-80
2022/03/25 13:12:51;;;;;;;33.40;29.92;;;;;;;33.43;11.86;101286.44;5064209;28;20416;-80
2022/03/25 13:15:19;;;;;;;33.60;30.08;;;;;;;33.49;11.87;101284.94;5086175;28;20401;-81
2022/03/25 13:17:47;;;;;;;35.37;31.57;;;;;;;33.36;12.22;101284.34;5070303;28;20409;-82
2022/03/25 13:20:16;;;;;;;32.72;29.60;;;;;;;33.53;11.56;101276.53;5076764;28;20394;-82
2022/03/25 13:23:10;;;;;;;36.77;32.93;;;;;;;33.20;12.39;101283.72;5069502;28;20411;-80
2022/03/25 13:25:41;;;;;;;33.23;29.67;;;;;;;32.20;11.91;101279.53;5041847;28;20442;-80
2022/03/25 13:28:10;;;;;;;31.73;28.63;;;;;;;32.23;11.97;101270.34;5063233;28;20413;-80
2022/03/25 13:30:38;;;;;;;31.25;27.95;;;;;;;32.85;11.36;101269.91;5062283;28;20767;-80
2022/03/25 13:33:08;;;;;;;29.88;27.10;;;;;;;32.89;11.30;101269.97;5076082;28;20995;-80
2022/03/25 13:35:45;;;;;;;30.73;27.70;;;;;;;32.58;11.56;101265.41;5067425;28;20535;-80
2022/03/25 13:38:23;;;;;;;30.30;27.40;;;;;;;33.40;11.56;101265.53;5072416;28;20413;-80
2022/03/25 13:40:56;;;;;;;28.63;25.83;;;;;;;33.97;10.81;101265.50;5064899;28;20404;-80
2022/03/25 13:43:24;;;;;;;29.75;26.95;;;;;;;33.43;10.71;101263.19;5057347;28;20540;-80
2022/03/25 13:46:04;;;;;;;31.00;27.80;;;;;;;33.69;11.16;101263.16;5061426;28;20413;-80
2022/03/25 13:48:42;;;;;;;28.70;25.80;;;;;;;34.05;10.29;101262.41;5057992;28;20413;-82
2022/03/25 13:51:19;;;;;;;28.98;25.98;;;;;;;33.78;10.99;101260.84;5058313;28;20392;-80
2022/03/25 13:53:45;;;;;;;30.35;27.35;;;;;;;33.72;10.51;101253.97;5067306;28;20394;-81
2022/03/25 13:56:22;;;;;;;30.67;27.40;;;;;;;33.89;10.79;101251.34;5054608;28;20917;-82
2022/03/25 13:58:53;;;;;;;30.73;27.77;;;;;;;33.33;11.02;101247.75;5027688;28;20463;-80
2022/03/25 14:01:30;;;;;;;30.35;27.35;;;;;;;33.27;11.31;101260.53;5052549;28;20694;-80
2022/03/25 14:04:10;;;;;;;62.00;30.40;;;;;;;33.30;10.92;101254.16;5051359;28;20463;-78
2022/03/25 14:06:40;;;;;;;40.20;27.88;;;;;;;33.19;10.77;101247.59;5053377;28;20412;-79
2022/03/25 14:09:28;;;;;;;31.33;27.95;;;;;;;33.24;10.90;101244.44;5064848;28;20408;-78
2022/03/25 14:11:54;;;;;;;31.52;28.27;;;;;;;32.86;11.48;101240.66;5061187;28;20407;-81
2022/03/25 14:14:27;;;;;;;30.55;27.25;;;;;;;33.48;11.11;101243.97;5069033;28;20413;-79
2022/03/25 14:16:57;;;;;;;30.80;27.67;;;;;;;33.12;11.63;101245.47;5056600;28;20389;-79
2022/03/25 14:19:23;;;;;;;32.10;28.90;;;;;;;32.88;11.13;101243.88;5050826;28;20798;-78
2022/03/25 14:21:49;;;;;;;31.42;28.15;;;;;;;32.69;11.55;101241.16;5078096;28;20901;-79
2022/03/25 14:26:59;;;;;;;29.27;26.38;;;;;;;32.75;11.37;101234.03;5092379;28;20378;-79
2022/03/25 14:29:25;;;;;;;30.97;27.83;;;;;;;32.22;11.40;101227.47;5074772;28;20390;-79
2022/03/25 14:31:51;;;;;;;30.80;27.60;;;;;;;32.02;11.71;101219.44;5041845;28;20911;-79
2022/03/25 14:34:16;;;;;;;31.47;28.17;;;;;;;31.47;12.25;101218.72;5044409;28;20401;-79
2022/03/25 14:36:42;;;;;;;29.03;26.23;;;;;;;30.71;11.71;101222.94;5086841;28;20394;-79
2022/03/25 14:39:09;;;;;;;30.83;27.10;;;;;;;29.31;12.88;101213.00;5074619;28;20385;-79
2022/03/25 14:41:36;;;;;;;28.00;24.90;;;;;;;29.11;13.08;101219.53;5073748;28;20468;-79
2022/03/25 14:44:06;;;;;;;28.88;25.73;;;;;;;28.89;13.22;101213.63;5070796;28;20509;-79
2022/03/25 14:46:33;;;;;;;29.40;26.27;;;;;;;27.99;13.42;101208.94;5073565;28;20400;-79
2022/03/25 14:48:59;;;;;;;29.92;26.70;;;;;;;26.83;14.84;101213.63;5086005;28;20470;-78
2022/03/25 14:51:24;;;;;;;29.30;25.13;;;;;;;26.09;15.24;101202.09;5073603;28;20820;-78
2022/03/25 14:53:49;;;;;;;28.03;25.00;;;;;;;24.91;15.58;101206.16;5066947;28;20753;-79
2022/03/25 14:56:14;;;;;;;30.37;26.37;;;;;;;23.71;16.54;101197.22;5063182;28;20398;-78
2022/03/25 14:58:40;;;;;;;33.37;25.77;;;;;;;23.31;17.58;101204.53;5088662;28;20382;-78
2022/03/25 15:01:06;;;;;;;27.65;24.20;;;;;;;22.79;17.86;101191.31;5073110;28;20769;-78
2022/03/25 15:03:31;;;;;;;29.00;24.03;;;;;;;22.08;18.58;101199.00;5087312;28;20390;-78
2022/03/25 15:05:56;;;;;;;30.70;25.70;;;;;;;21.61;19.50;101196.47;5070359;28;20418;-78
2022/03/25 15:08:22;;;;;;;35.42;26.60;;;;;;;21.67;19.92;101195.28;5089427;28;21112;-78
2022/03/25 15:10:47;;;;;;;30.03;24.13;;;;;;;21.46;19.51;101191.22;5063898;28;20418;-78
2022/03/25 15:13:12;;;;;;;34.97;24.83;;;;;;;21.13;19.06;101190.31;5065710;28;20746;-78
2022/03/25 15:15:45;;;;;;;29.37;22.03;;;;;;;21.00;19.10;101188.28;5071095;28;20401;-78
2022/03/25 15:18:14;;;;;;;28.73;22.02;;;;;;;20.87;19.29;101186.25;5048726;28;20398;-78
2022/03/25 15:20:40;;;;;;;29.17;24.17;;;;;;;20.74;19.21;101187.78;5072085;28;20964;-78
2022/03/25 15:23:05;;;;;;;27.90;23.43;;;;;;;20.59;19.79;101187.97;5056560;28;20409;-78
2022/03/25 15:25:31;;;;;;;28.73;23.45;;;;;;;20.55;19.95;101182.22;5074891;28;20454;-78
2022/03/25 15:27:56;;;;;;;28.37;23.93;;;;;;;20.54;20.42;101185.28;5068100;28;20398;-78
2022/03/25 15:35:50;;;;;;;31.13;24.80;;;;;;;20.31;20.73;101183.34;5059579;28;20411;-78
2022/03/25 15:38:15;;;;;;;38.13;27.90;;;;;;;20.18;21.14;101185.66;5063277;28;20395;-77
2022/03/25 15:40:41;;;;;;;34.63;26.95;;;;;;;20.03;21.28;101185.78;5079675;28;20845;-78
2022/03/25 15:43:07;;;;;;;34.13;26.27;;;;;;;20.04;21.38;101181.13;5085126;28;20384;-77
2022/03/25 15:45:32;;;;;;;34.58;24.35;;;;;;;19.93;21.71;101177.63;5063417;28;20460;-78
2022/03/25 15:47:58;;;;;;;32.63;25.17;;;;;;;19.96;21.48;101184.47;5069969;28;20398;-78
2022/03/25 15:50:24;;;;;;;30.40;24.73;;;;;;;19.99;21.38;101181.97;5072896;28;20386;-78
2022/03/25 15:52:49;;;;;;;30.02;24.33;;;;;;;19.89;21.29;101175.78;5074060;28;20396;-77
2022/03/25 15:55:14;;;;;;;30.47;24.37;;;;;;;19.73;20.78;101177.00;5090869;28;20473;-77
2022/03/25 15:57:52;;;;;;;31.77;23.87;;;;;;;19.65;20.95;101176.53;5059453;28;20406;-77
2022/03/25 16:00:21;;;;;;;30.52;24.67;;;;;;;19.55;21.06;101184.03;5072064;28;20410;-77
2022/03/25 16:02:47;;;;;;;30.05;24.55;;;;;;;19.59;21.60;101174.09;5060511;28;20872;-77
2022/03/25 16:05:12;;;;;;;29.40;24.33;;;;;;;19.51;21.23;101182.97;5091072;28;20469;-77
2022/03/25 16:07:38;;;;;;;30.88;24.85;;;;;;;19.39;20.97;101179.72;5081713;28;20399;-77
2022/03/25 16:10:05;;;;;;;28.23;24.00;;;;;;;19.34;21.49;101188.81;5083832;28;20916;-77
2022/03/25 16:12:30;;;;;;;33.75;24.30;;;;;;;19.25;20.78;101175.97;5073596;28;20397;-77
2022/03/25 16:14:56;;;;;;;31.30;25.10;;;;;;;19.14;21.70;101183.44;5094585;28;20382;-77
2022/03/25 16:17:21;;;;;;;30.83;25.38;;;;;;;19.12;22.10;101185.66;5080406;28;20396;-77
2022/03/25 16:19:46;;;;;;;34.10;25.83;;;;;;;19.07;22.43;101182.94;5055227;28;20411;-78
2022/03/25 16:22:13;;;;;;;35.77;25.90;;;;;;;19.04;22.58;101183.50;5064963;28;20405;-77
2022/03/25 16:24:40;;;;;;;34.45;25.27;;;;;;;19.01;22.86;101186.81;5093809;28;20892;-78
2022/03/25 16:27:06;;;;;;;32.20;26.33;;;;;;;18.99;22.84;101180.81;5094533;28;20420;-77
2022/03/25 16:29:32;;;;;;;35.15;26.75;;;;;;;18.90;22.88;101177.81;5090314;28;20775;-77
2022/03/25 16:31:59;;;;;;;32.30;25.73;;;;;;;18.86;23.17;101187.75;5034564;28;20393;-77
2022/03/25 16:34:28;;;;;;;33.50;24.60;;;;;;;18.79;22.98;101187.22;5092729;28;20390;-77
2022/03/25 16:36:54;;;;;;;31.03;24.70;;;;;;;18.74;23.32;101187.22;5075147;28;20488;-77
2022/03/25 16:39:20;;;;;;;30.23;24.27;;;;;;;18.63;23.51;101183.72;5060474;28;20838;-79
2022/03/25 16:41:46;;;;;;;32.22;24.30;;;;;;;18.56;23.00;101185.13;5084581;28;20393;-78
2022/03/25 16:44:12;;;;;;;29.65;23.58;;;;;;;18.52;23.09;101184.03;5093566;28;21506;-79
2022/03/25 16:46:38;;;;;;;29.57;23.27;;;;;;;18.47;23.17;101187.59;5088438;28;20435;-79
2022/03/25 16:49:03;;;;;;;37.23;23.13;;;;;;;18.46;23.71;101191.44;5074762;28;20378;-79
2022/03/25 16:51:29;;;;;;;34.23;26.73;;;;;;;18.33;23.73;101183.78;5077384;28;20874;-79
2022/03/25 16:53:55;;;;;;;35.15;24.52;;;;;;;18.26;23.94;101185.16;5067543;28;20484;-79
2022/03/25 16:56:20;;;;;;;35.33;26.80;;;;;;;18.19;24.00;101185.47;5094289;28;20462;-79
2022/03/25 16:58:47;;;;;;;31.93;24.67;;;;;;;18.09;23.96;101188.22;5093816;28;20387;-79
2022/03/25 17:01:14;;;;;;;36.97;25.80;;;;;;;18.07;23.99;101194.00;5063132;28;20404;-79
2022/03/25 17:03:47;;;;;;;35.58;25.63;;;;;;;18.05;24.12;101187.13;5062174;28;20479;-79
2022/03/25 17:06:21;;;;;;;31.83;25.83;;;;;;;17.97;24.64;101196.75;5075548;28;20772;-79
2022/03/25 17:08:47;;;;;;;33.78;25.67;;;;;;;17.87;24.96;101188.53;5090563;28;20399;-79
2022/03/25 17:11:13;;;;;;;34.15;25.23;;;;;;;17.79;25.17;101191.00;5067570;28;20386;-79
2022/03/25 17:13:40;;;;;;;33.40;26.00;;;;;;;17.73;25.10;101190.19;5072317;28;20470;-79
2022/03/25 17:16:06;;;;;;;36.83;26.60;;;;;;;17.73;25.24;101194.84;5079487;28;20797;-79
2022/03/25 17:18:33;;;;;;;33.93;26.43;;;;;;;17.66;25.46;101197.03;5075367;28;20382;-79
2022/03/25 17:20:59;;;;;;;34.58;26.23;;;;;;;17.58;25.28;101193.72;5063548;28;20385;-79
2022/03/25 17:23:24;;;;;;;37.63;27.02;;;;;;;17.51;25.79;101198.66;5090534;28;20382;-79
2022/03/25 17:25:51;;;;;;;33.77;26.57;;;;;;;17.45;25.67;101201.66;5093082;28;20433;-79
2022/03/25 17:28:16;;;;;;;34.13;27.35;;;;;;;17.43;26.06;101212.88;5075528;28;20399;-79
2022/03/25 17:30:42;;;;;;;36.80;26.80;;;;;;;17.36;26.50;101200.53;5073410;28;20912;-79
2022/03/25 17:33:08;;;;;;;41.28;29.17;;;;;;;17.32;26.42;101207.66;5060653;28;20858;-79
2022/03/25 17:35:37;;;;;;;37.27;28.17;;;;;;;17.23;26.75;101215.56;5084052;28;20426;-79
2022/03/25 17:38:07;;;;;;;36.67;28.88;;;;;;;17.12;26.82;101209.25;5080300;28;20393;-79
2022/03/25 17:40:33;;;;;;;32.50;27.10;;;;;;;17.03;27.08;101212.78;5079652;28;20404;-79
2022/03/25 17:42:59;;;;;;;38.63;28.30;;;;;;;16.97;26.97;101216.59;5092753;28;20382;-79
2022/03/25 17:45:25;;;;;;;39.60;26.20;;;;;;;16.92;27.20;101220.16;5078552;28;20410;-79
2022/03/25 17:47:51;;;;;;;37.13;26.83;;;;;;;16.88;27.20;101216.31;5074942;28;20393;-79
2022/03/25 17:50:16;;;;;;;33.38;26.70;;;;;;;16.86;27.35;101217.66;5092807;28;20378;-79
2022/03/25 17:52:41;;;;;;;38.83;26.48;;;;;;;16.81;27.58;101218.47;5082029;28;20454;-79
2022/03/25 17:55:08;;;;;;;34.93;27.37;;;;;;;16.70;27.75;101222.22;5081584;28;20477;-79
2022/03/25 17:57:34;;;;;;;32.22;27.00;;;;;;;16.64;28.33;101225.22;5074673;28;20869;-79
2022/03/25 17:59:59;;;;;;;39.50;27.38;;;;;;;16.52;28.21;101219.94;5086411;28;20396;-79
2022/03/25 18:02:25;;;;;;;40.83;27.27;;;;;;;16.46;28.04;101231.94;5038870;28;20801;-79
2022/03/25 18:04:53;;;;;;;36.80;27.48;;;;;;;16.38;28.34;101227.78;5077462;28;20839;-79
2022/03/25 18:07:19;;;;;;;37.25;27.35;;;;;;;16.33;28.39;101227.78;5092644;28;20378;-79
2022/03/25 18:09:45;;;;;;;35.90;28.03;;;;;;;16.29;28.58;101232.13;5074383;28;20390;-79
2022/03/25 18:12:10;;;;;;;36.47;27.88;;;;;;;16.22;28.67;101234.25;5077645;28;20389;-79
2022/03/25 18:14:36;;;;;;;39.53;29.83;;;;;;;16.14;28.62;101228.44;5068358;28;20477;-79
2022/03/25 18:17:03;;;;;;;38.40;28.33;;;;;;;16.10;28.69;101228.97;5055811;28;20394;-79
2022/03/25 18:19:29;;;;;;;41.50;28.50;;;;;;;16.06;28.72;101241.53;5072188;28;20397;-79
2022/03/25 18:21:57;;;;;;;41.38;31.38;;;;;;;16.00;28.85;101244.50;5092482;28;20382;-79
2022/03/25 18:24:22;;;;;;;43.55;29.70;;;;;;;15.93;29.28;101243.88;5091457;28;20448;-79
2022/03/25 18:26:48;;;;;;;44.03;29.52;;;;;;;15.90;29.24;101252.59;5085009;28;20520;-79
2022/03/25 18:29:13;;;;;;;35.50;27.17;;;;;;;15.85;29.37;101252.53;5076678;28;20396;-79
2022/03/25 18:31:39;;;;;;;42.93;28.60;;;;;;;15.81;29.49;101251.41;5078034;28;20397;-79
2022/03/25 18:34:05;;;;;;;36.90;27.23;;;;;;;15.77;29.77;101270.25;5050899;28;20448;-79
2022/03/25 18:36:30;;;;;;;38.87;27.57;;;;;;;15.67;29.88;101261.16;5075360;28;20884;-79
2022/03/25 18:38:56;;;;;;;45.00;28.15;;;;;;;15.62;29.82;101266.53;5077135;28;20741;-78
2022/03/25 18:41:21;;;;;;;36.03;27.03;;;;;;;15.54;30.05;101265.91;5083597;28;20379;-79
2022/03/25 18:43:48;;;;;;;35.00;26.58;;;;;;;15.49;30.00;101271.34;5091699;28;20386;-79
2022/03/25 18:46:14;;;;;;;36.75;27.73;;;;;;;15.43;30.32;101261.44;5065437;28;20921;-79
2022/03/25 18:48:40;;;;;;;38.63;28.17;;;;;;;15.42;30.13;101262.50;5091747;28;20880;-78
2022/03/25 18:51:05;;;;;;;35.07;27.50;;;;;;;15.38;30.20;101271.44;5056637;28;20405;-79
2022/03/25 18:53:32;;;;;;;36.80;26.93;;;;;;;15.33;30.48;101266.78;5038258;28;20532;-79
2022/03/25 18:55:57;;;;;;;40.33;29.08;;;;;;;15.24;30.50;101268.31;5082389;28;20400;-79
2022/03/25 18:58:23;;;;;;;41.45;28.65;;;;;;;15.23;30.46;101268.56;5091633;28;20375;-79
2022/03/25 19:00:48;;;;;;;38.67;27.67;;;;;;;15.17;30.42;101277.78;5082459;28;20482;-78
2022/03/25 19:03:16;;;;;;;40.63;27.23;;;;;;;15.14;30.67;101270.09;5057606;28;20429;-78
2022/03/25 19:05:42;;;;;;;36.08;27.17;;;;;;;15.08;30.52;101275.50;5087269;28;20512;-79
2022/03/25 19:08:09;;;;;;;40.80;27.92;;;;;;;15.04;30.56;101279.00;5091499;28;20465;-79
2022/03/25 19:10:35;;;;;;;39.75;27.55;;;;;;;15.00;31.09;101277.84;5080682;28;20383;-78
2022/03/25 19:13:00;;;;;;;38.30;28.05;;;;;;;14.97;31.02;101283.81;5091552;28;20500;-79
2022/03/25 19:15:26;;;;;;;35.80;27.23;;;;;;;14.89;31.09;101285.06;5058151;28;20510;-78
2022/03/25 19:17:51;;;;;;;40.73;27.57;;;;;;;14.81;31.13;101284.72;5075952;28;20382;-79
2022/03/25 19:20:18;;;;;;;38.07;27.87;;;;;;;14.78;31.10;101293.41;5056587;28;20927;-79
2022/03/25 19:22:43;;;;;;;39.65;27.60;;;;;;;14.73;31.25;101279.66;5041994;28;20405;-79
2022/03/25 19:25:10;;;;;;;38.80;28.92;;;;;;;14.68;31.25;101288.63;5090890;28;20414;-79
2022/03/25 19:27:35;;;;;;;40.40;29.15;;;;;;;14.68;31.06;101291.34;5057965;28;20496;-80
2022/03/25 19:30:01;;;;;;;37.40;27.87;;;;;;;14.71;30.76;101288.13;5060855;28;22368;-79
2022/03/25 19:32:26;;;;;;;35.28;27.23;;;;;;;14.67;31.06;101294.31;5059156;28;20403;-80
2022/03/25 19:34:51;;;;;;;37.97;28.20;;;;;;;14.68;31.07;101293.25;5086103;28;20398;-79
2022/03/25 19:37:19;;;;;;;38.53;28.00;;;;;;;14.62;31.12;101291.53;5080637;28;20412;-79
2022/03/25 19:39:44;;;;;;;38.00;27.33;;;;;;;14.59;31.23;101298.28;5091066;28;20873;-81
2022/03/25 19:42:09;;;;;;;42.30;28.10;;;;;;;14.59;31.64;101302.94;5080011;28;20406;-80
2022/03/25 19:44:35;;;;;;;41.35;27.67;;;;;;;14.51;32.11;101305.03;5057435;28;20421;-80
2022/03/25 19:47:00;;;;;;;37.47;25.77;;;;;;;14.48;32.38;101301.97;5070369;28;20448;-80
2022/03/25 19:49:26;;;;;;;34.13;26.13;;;;;;;14.44;32.68;101298.09;5076771;28;20406;-81
2022/03/25 19:51:53;;;;;;;36.40;25.90;;;;;;;14.37;32.76;101297.44;5080537;28;20800;-80
2022/03/25 19:54:18;;;;;;;33.15;25.98;;;;;;;14.30;33.27;101294.84;5046795;28;20458;-80
2022/03/25 19:56:46;;;;;;;35.85;26.63;;;;;;;14.25;33.08;101310.31;5066008;28;20411;-81
2022/03/25 19:59:13;;;;;;;41.25;28.30;;;;;;;14.18;33.25;101301.47;5077683;28;20741;-80
2022/03/25 20:01:41;;;;;;;37.65;27.27;;;;;;;14.12;34.33;101302.47;5085956;28;20386;-80
2022/03/25 20:04:07;;;;;;;39.08;27.23;;;;;;;14.03;34.24;101311.03;5074458;28;20748;-81
2022/03/25 20:06:33;;;;;;;37.60;25.42;;;;;;;13.98;34.74;101318.31;5057712;28;20913;-81
2022/03/25 20:08:59;;;;;;;39.90;27.13;;;;;;;13.91;35.41;101312.19;5073429;28;20406;-81
2022/03/25 20:11:24;;;;;;;33.25;25.52;;;;;;;13.84;35.44;101315.06;5058593;28;20402;-80
2022/03/25 20:13:50;;;;;;;35.93;25.17;;;;;;;13.78;34.98;101312.50;5070241;28;20401;-80
2022/03/25 20:16:15;;;;;;;38.17;26.30;;;;;;;13.77;34.76;101306.22;5073643;28;20474;-78
2022/03/25 20:18:41;;;;;;;36.50;27.00;;;;;;;13.75;34.87;101304.81;5078190;28;20754;-80
2022/03/25 20:21:06;;;;;;;35.00;25.80;;;;;;;13.71;34.54;101311.81;5086267;28;20406;-78
2022/03/25 20:23:32;;;;;;;38.53;26.57;;;;;;;13.66;35.18;101314.47;5066620;28;20394;-79
2022/03/25 20:25:57;;;;;;;34.95;26.02;;;;;;;13.61;36.12;101311.63;5060257;28;20794;-78
2022/03/25 20:28:23;;;;;;;37.37;26.30;;;;;;;13.51;36.71;101313.09;5069531;28;21359;-78
2022/03/25 20:30:48;;;;;;;37.85;25.88;;;;;;;13.42;36.88;101313.72;5076094;28;20495;-78
2022/03/25 20:33:16;;;;;;;36.00;26.87;;;;;;;13.35;36.74;101322.03;5073444;28;20476;-77
2022/03/25 20:35:41;;;;;;;41.28;29.48;;;;;;;13.34;36.37;101323.09;5061460;28;20399;-79
2022/03/25 20:38:06;;;;;;;46.10;31.43;;;;;;;13.33;35.89;101317.91;5091718;28;20568;-79
2022/03/25 20:40:32;;;;;;;45.10;30.30;;;;;;;13.29;36.52;101317.56;5075879;28;20421;-78
2022/03/25 20:42:58;;;;;;;45.80;30.73;;;;;;;13.26;37.79;101328.13;5086877;28;20386;-79
2022/03/25 20:45:23;;;;;;;43.03;30.87;;;;;;;13.22;38.40;101329.66;5064894;28;20423;-77
2022/03/25 20:47:49;;;;;;;42.40;30.30;;;;;;;13.15;38.39;101329.78;5063318;28;20415;-77
2022/03/25 20:50:15;;;;;;;45.25;30.92;;;;;;;13.13;38.58;101339.28;5074131;28;20406;-78
2022/03/25 20:52:41;;;;;;;43.58;31.35;;;;;;;13.08;38.54;101339.94;5051324;28;20413;-77
2022/03/25 20:55:08;;;;;;;47.00;33.13;;;;;;;13.06;37.81;101339.38;5062999;28;20413;-78
2022/03/25 20:57:34;;;;;;;49.17;32.13;;;;;;;13.03;37.66;101337.13;5057508;28;20400;-77
2022/03/25 21:00:00;;;;;;;44.90;30.75;;;;;;;13.02;37.15;101344.47;5069156;28;20402;-79
2022/03/25 21:02:25;;;;;;;44.65;31.25;;;;;;;13.01;37.31;101345.53;5085247;28;20478;-78
2022/03/25 21:04:50;;;;;;;41.37;29.67;;;;;;;12.98;37.54;101346.00;5076297;28;20441;-77
2022/03/25 21:07:16;;;;;;;40.70;29.10;;;;;;;12.97;36.73;101347.06;5072914;28;20444;-78
2022/03/25 21:09:42;;;;;;;42.75;29.50;;;;;;;12.95;36.98;101346.47;5070965;28;20549;-77
2022/03/25 21:12:08;;;;;;;42.13;29.25;;;;;;;12.95;37.07;101351.09;5084822;28;20438;-77
2022/03/25 21:14:33;;;;;;;45.70;29.65;;;;;;;12.94;36.87;101346.75;5059756;28;20495;-78
2022/03/25 21:16:59;;;;;;;41.23;29.83;;;;;;;12.90;36.72;101351.81;5075384;28;20466;-77
2022/03/25 21:19:25;;;;;;;40.13;28.20;;;;;;;12.87;36.31;101354.19;5051479;28;20506;-77
2022/03/25 21:21:51;;;;;;;39.90;29.43;;;;;;;12.80;37.00;101365.19;5077794;28;20481;-77
2022/03/25 21:24:17;;;;;;;52.60;30.80;;;;;;;12.79;36.71;101363.53;5053115;28;20518;-77
2022/03/25 21:26:42;;;;;;;41.97;29.40;;;;;;;12.77;36.66;101360.25;5040458;28;20849;-77
2022/03/25 21:29:07;;;;;;;45.47;30.63;;;;;;;12.78;37.20;101358.31;5043261;28;20412;-77
2022/03/25 21:31:33;;;;;;;43.73;30.33;;;;;;;12.76;37.14;101363.19;5056779;28;20488;-78
2022/03/25 21:33:58;;;;;;;42.60;30.57;;;;;;;12.74;36.57;101357.16;5046832;28;20534;-78
2022/03/25 21:36:24;;;;;;;42.70;30.67;;;;;;;12.73;36.61;101367.22;5033522;28;20389;-78
2022/03/25 21:38:51;;;;;;;41.97;29.83;;;;;;;12.73;36.58;101369.94;5058192;28;20403;-78
2022/03/25 21:41:16;;;;;;;42.50;29.63;;;;;;;12.72;36.55;101378.31;5043533;28;20467;-78
2022/03/25 21:43:42;;;;;;;47.00;30.50;;;;;;;12.74;36.11;101371.59;5043116;28;20415;-79
2022/03/25 21:46:07;;;;;;;40.75;30.23;;;;;;;12.76;36.34;101368.63;5056724;28;20514;-78
2022/03/25 21:48:32;;;;;;;41.70;31.27;;;;;;;12.77;36.75;101370.28;5064647;28;20440;-78
2022/03/25 21:50:58;;;;;;;41.50;31.30;;;;;;;12.75;36.71;101364.22;5069927;28;20747;-78
2022/03/25 21:53:23;;;;;;;44.90;30.57;;;;;;;12.71;36.36;101369.31;5055458;28;20971;-78
2022/03/25 21:55:49;;;;;;;45.30;30.75;;;;;;;12.70;36.46;101372.28;5071240;28;20392;-78
2022/03/25 21:58:15;;;;;;;53.33;32.03;;;;;;;12.67;36.64;101370.88;5063120;28;20549;-78
2022/03/25 22:00:41;;;;;;;41.23;31.63;;;;;;;12.67;36.75;101379.03;5050292;28;20461;-78
2022/03/25 22:03:09;;;;;;;47.60;31.77;;;;;;;12.63;36.85;101374.28;5061839;28;20403;-78
2022/03/25 22:05:36;;;;;;;44.58;31.55;;;;;;;12.59;36.86;101373.94;5071350;28;20429;-78
2022/03/25 22:08:02;;;;;;;44.90;31.02;;;;;;;12.58;36.85;101380.44;5062268;28;20445;-79
2022/03/25 22:10:29;;;;;;;46.10;31.92;;;;;;;12.56;36.88;101379.00;5059418;28;20865;-78
2022/03/25 22:12:56;;;;;;;44.83;30.92;;;;;;;12.51;37.34;101384.34;5044167;28;20415;-78
2022/03/25 22:15:23;;;;;;;41.55;31.63;;;;;;;12.49;36.67;101382.69;5071849;28;20445;-78
2022/03/25 22:17:49;;;;;;;45.42;31.75;;;;;;;12.45;37.03;101384.22;5067913;28;20419;-78
2022/03/25 22:20:15;;;;;;;42.53;32.55;;;;;;;12.40;37.44;101383.25;5054658;28;20609;-78
2022/03/25 22:22:40;;;;;;;46.57;32.10;;;;;;;12.38;37.59;101388.13;5053441;28;20404;-78
2022/03/25 22:25:06;;;;;;;45.33;32.23;;;;;;;12.35;37.10;101385.84;5061445;28;20446;-78
2022/03/25 22:27:31;;;;;;;45.30;33.20;;;;;;;12.34;37.39;101386.91;5048178;28;20756;-78
2022/03/25 22:29:56;;;;;;;44.43;31.90;;;;;;;12.30;37.99;101388.44;5068290;28;20410;-77
2022/03/25 22:32:22;;;;;;;48.30;32.73;;;;;;;12.26;38.25;101396.22;5063623;28;20419;-78
2022/03/25 22:34:47;;;;;;;45.85;31.83;;;;;;;12.25;37.91;101388.34;5068810;28;20481;-78
2022/03/25 22:37:14;;;;;;;46.73;34.23;;;;;;;12.23;37.79;101388.56;5060042;28;20815;-78
2022/03/25 22:39:40;;;;;;;48.33;33.10;;;;;;;12.21;37.93;101392.56;5069274;28;20411;-78
2022/03/25 22:42:06;;;;;;;48.00;33.70;;;;;;;12.20;37.86;101390.91;5071769;28;20498;-78
2022/03/25 22:44:31;;;;;;;46.47;32.60;;;;;;;12.20;38.38;101396.34;5079476;28;20452;-78